JIA5037 KAVL-KCLT
Flight info
| Callsign | JIA5037 |
|---|---|
| Flight time | 0h 23m |
| Altitude | 13000 |
| Route | FILPZ FILPZ4 |
| Aircraft | CRJ7/M-SDFGIRWY/S |
Departure
| Time | 2026-05-07 01:54 |
|---|---|
| Airport | Asheville Regional Airport (KAVL) |
Arrival
| Time | 2026-05-07 02:18 |
|---|---|
| Airport | Charlotte Douglas International Airport (KCLT) |
| Time | Latitude | Longitude | Altitude | Speed | Heading |
|---|---|---|---|---|---|
| 2026-05-07 01:34 | 35.43485 | -82.53865 | 2144 ft | 0 kts | 89° |
| 2026-05-07 01:46 | 35.43485 | -82.53876 | 2145 ft | 2 kts | 90° |
| 2026-05-07 01:46 | 35.43485 | -82.53900 | 2145 ft | 2 kts | 90° |
| 2026-05-07 01:46 | 35.43484 | -82.53912 | 2145 ft | 1 kts | 90° |
| 2026-05-07 01:47 | 35.43484 | -82.53921 | 2144 ft | 1 kts | 69° |
| 2026-05-07 01:47 | 35.43477 | -82.53929 | 2144 ft | 1 kts | 7° |
| 2026-05-07 01:47 | 35.43469 | -82.53928 | 2143 ft | 1 kts | 337° |
| 2026-05-07 01:47 | 35.43467 | -82.53927 | 2143 ft | 0 kts | 337° |
| 2026-05-07 01:50 | 35.43471 | -82.53928 | 2143 ft | 4 kts | 337° |
| 2026-05-07 01:50 | 35.43524 | -82.53964 | 2147 ft | 12 kts | 297° |
| 2026-05-07 01:50 | 35.43560 | -82.54042 | 2149 ft | 10 kts | 343° |
| 2026-05-07 01:51 | 35.43660 | -82.54085 | 2154 ft | 22 kts | 338° |
| 2026-05-07 01:51 | 35.43803 | -82.54150 | 2158 ft | 20 kts | 339° |
| 2026-05-07 01:51 | 35.43935 | -82.54209 | 2159 ft | 20 kts | 339° |
| 2026-05-07 01:51 | 35.44070 | -82.54269 | 2157 ft | 21 kts | 340° |
| 2026-05-07 01:52 | 35.44211 | -82.54332 | 2155 ft | 22 kts | 340° |
| 2026-05-07 01:52 | 35.44360 | -82.54398 | 2152 ft | 23 kts | 339° |
| 2026-05-07 01:52 | 35.44518 | -82.54469 | 2149 ft | 24 kts | 339° |
| 2026-05-07 01:52 | 35.44632 | -82.54520 | 2144 ft | 7 kts | 337° |
| 2026-05-07 01:53 | 35.44658 | -82.54546 | 2142 ft | 0 kts | 289° |
| 2026-05-07 01:53 | 35.44661 | -82.54568 | 2142 ft | 8 kts | 272° |
| 2026-05-07 01:53 | 35.44635 | -82.54644 | 2141 ft | 10 kts | 223° |
| 2026-05-07 01:53 | 35.44591 | -82.54648 | 2142 ft | 2 kts | 161° |
| 2026-05-07 01:54 | 35.44426 | -82.54569 | 2148 ft | 64 kts | 160° |
| 2026-05-07 01:54 | 35.43764 | -82.54273 | 2157 ft | 134 kts | 159° |
| 2026-05-07 01:54 | 35.42756 | -82.53833 | 2240 ft | 175 kts | 161° |
| 2026-05-07 01:54 | 35.41569 | -82.53310 | 2813 ft | 185 kts | 160° |
| 2026-05-07 01:55 | 35.40333 | -82.52728 | 3352 ft | 198 kts | 160° |
| 2026-05-07 01:55 | 35.39038 | -82.52084 | 3978 ft | 204 kts | 160° |
| 2026-05-07 01:55 | 35.37702 | -82.51392 | 4600 ft | 214 kts | 160° |
| 2026-05-07 01:55 | 35.35791 | -82.50369 | 5091 ft | 249 kts | 160° |
| 2026-05-07 01:56 | 35.34697 | -82.49782 | 5537 ft | 258 kts | 160° |
| 2026-05-07 01:56 | 35.33068 | -82.48885 | 6349 ft | 264 kts | 160° |
| 2026-05-07 01:56 | 35.31438 | -82.47829 | 7208 ft | 272 kts | 146° |
| 2026-05-07 01:56 | 35.30369 | -82.45877 | 8046 ft | 287 kts | 108° |
| 2026-05-07 01:57 | 35.30335 | -82.43462 | 8779 ft | 297 kts | 73° |
| 2026-05-07 01:57 | 35.31367 | -82.41318 | 9472 ft | 297 kts | 40° |
| 2026-05-07 01:57 | 35.32887 | -82.39625 | 10238 ft | 301 kts | 40° |
| 2026-05-07 01:57 | 35.34370 | -82.37753 | 10943 ft | 308 kts | 42° |
| 2026-05-07 01:58 | 35.35813 | -82.35831 | 11693 ft | 312 kts | 43° |
| 2026-05-07 01:58 | 35.37315 | -82.33807 | 12025 ft | 333 kts | 43° |
| 2026-05-07 01:58 | 35.38929 | -82.31623 | 12148 ft | 357 kts | 44° |
| 2026-05-07 01:58 | 35.40608 | -82.29323 | 12661 ft | 365 kts | 44° |
| 2026-05-07 01:59 | 35.42323 | -82.26981 | 12999 ft | 379 kts | 44° |
| 2026-05-07 01:59 | 35.44132 | -82.24513 | 13000 ft | 397 kts | 44° |
| 2026-05-07 01:59 | 35.45966 | -82.21997 | 13025 ft | 403 kts | 44° |
| 2026-05-07 01:59 | 35.47850 | -82.19421 | 12983 ft | 407 kts | 44° |
| 2026-05-07 02:00 | 35.50377 | -82.15958 | 12976 ft | 411 kts | 44° |
| 2026-05-07 02:00 | 35.51667 | -82.14195 | 12945 ft | 414 kts | 44° |
| 2026-05-07 02:00 | 35.53570 | -82.11581 | 12967 ft | 415 kts | 44° |
| 2026-05-07 02:00 | 35.55476 | -82.08884 | 12967 ft | 413 kts | 50° |
| 2026-05-07 02:01 | 35.56667 | -82.05725 | 12894 ft | 410 kts | 77° |
| 2026-05-07 02:01 | 35.56807 | -82.02289 | 12922 ft | 407 kts | 101° |
| 2026-05-07 02:01 | 35.56237 | -81.98893 | 12980 ft | 408 kts | 105° |
| 2026-05-07 02:01 | 35.55615 | -81.95473 | 12932 ft | 413 kts | 106° |
| 2026-05-07 02:02 | 35.54979 | -81.92018 | 12983 ft | 415 kts | 105° |
| 2026-05-07 02:02 | 35.54355 | -81.88581 | 12980 ft | 418 kts | 105° |
| 2026-05-07 02:02 | 35.53724 | -81.85124 | 12933 ft | 408 kts | 105° |
| 2026-05-07 02:02 | 35.52915 | -81.80699 | 12910 ft | 397 kts | 106° |
| 2026-05-07 02:03 | 35.52514 | -81.78497 | 12917 ft | 392 kts | 105° |
| 2026-05-07 02:03 | 35.51922 | -81.75279 | 12916 ft | 384 kts | 105° |
| 2026-05-07 02:03 | 35.51353 | -81.72151 | 12781 ft | 364 kts | 105° |
| 2026-05-07 02:03 | 35.50821 | -81.69218 | 12512 ft | 347 kts | 105° |
| 2026-05-07 02:04 | 35.50292 | -81.66341 | 11916 ft | 342 kts | 105° |
| 2026-05-07 02:04 | 35.49780 | -81.63531 | 11347 ft | 337 kts | 105° |
| 2026-05-07 02:04 | 35.49266 | -81.60739 | 10873 ft | 330 kts | 105° |
| 2026-05-07 02:04 | 35.49159 | -81.57950 | 10889 ft | 332 kts | 84° |
| 2026-05-07 02:05 | 35.49429 | -81.55196 | 10908 ft | 317 kts | 83° |
| 2026-05-07 02:05 | 35.49692 | -81.52536 | 10632 ft | 311 kts | 84° |
| 2026-05-07 02:05 | 35.49956 | -81.49909 | 10089 ft | 311 kts | 84° |
| 2026-05-07 02:05 | 35.50208 | -81.47327 | 9656 ft | 307 kts | 84° |
| 2026-05-07 02:06 | 35.50463 | -81.44733 | 9254 ft | 301 kts | 84° |
| 2026-05-07 02:06 | 35.50708 | -81.42189 | 8706 ft | 302 kts | 83° |
| 2026-05-07 02:06 | 35.50956 | -81.39665 | 8257 ft | 299 kts | 83° |
| 2026-05-07 02:06 | 35.51197 | -81.37148 | 7909 ft | 291 kts | 83° |
| 2026-05-07 02:07 | 35.51431 | -81.34769 | 7890 ft | 271 kts | 84° |
| 2026-05-07 02:07 | 35.51846 | -81.30478 | 7861 ft | 237 kts | 84° |
| 2026-05-07 02:07 | 35.52041 | -81.28421 | 7898 ft | 255 kts | 85° |
| 2026-05-07 02:08 | 35.52249 | -81.26248 | 7942 ft | 263 kts | 83° |
| 2026-05-07 02:08 | 35.52501 | -81.24034 | 7932 ft | 253 kts | 82° |
| 2026-05-07 02:08 | 35.52747 | -81.21934 | 7773 ft | 245 kts | 82° |
| 2026-05-07 02:08 | 35.52977 | -81.19898 | 7508 ft | 243 kts | 83° |
| 2026-05-07 02:09 | 35.53213 | -81.17851 | 7199 ft | 243 kts | 83° |
| 2026-05-07 02:09 | 35.53453 | -81.15816 | 6953 ft | 240 kts | 83° |
| 2026-05-07 02:09 | 35.53699 | -81.13778 | 6550 ft | 242 kts | 83° |
| 2026-05-07 02:09 | 35.53948 | -81.11740 | 6408 ft | 237 kts | 83° |
| 2026-05-07 02:10 | 35.54190 | -81.09756 | 6139 ft | 236 kts | 83° |
| 2026-05-07 02:10 | 35.54436 | -81.07766 | 5821 ft | 237 kts | 83° |
| 2026-05-07 02:10 | 35.54682 | -81.05772 | 5550 ft | 235 kts | 82° |
| 2026-05-07 02:10 | 35.54930 | -81.03804 | 5272 ft | 235 kts | 83° |
| 2026-05-07 02:11 | 35.54890 | -81.01842 | 4921 ft | 228 kts | 117° |
| 2026-05-07 02:11 | 35.54057 | -81.00301 | 4692 ft | 215 kts | 135° |
| 2026-05-07 02:11 | 35.53103 | -80.98867 | 4406 ft | 215 kts | 139° |
| 2026-05-07 02:11 | 35.51986 | -80.97661 | 4249 ft | 212 kts | 148° |
| 2026-05-07 02:12 | 35.50758 | -80.96761 | 4190 ft | 201 kts | 172° |
| 2026-05-07 02:12 | 35.49447 | -80.96429 | 3992 ft | 191 kts | 176° |
| 2026-05-07 02:12 | 35.48100 | -80.96155 | 3920 ft | 198 kts | 178° |
| 2026-05-07 02:12 | 35.46687 | -80.95918 | 3948 ft | 213 kts | 179° |
| 2026-05-07 02:13 | 35.45188 | -80.95708 | 3947 ft | 214 kts | 179° |
| 2026-05-07 02:13 | 35.43726 | -80.95521 | 3922 ft | 209 kts | 180° |
| 2026-05-07 02:13 | 35.42339 | -80.95361 | 3991 ft | 191 kts | 181° |
| 2026-05-07 02:13 | 35.41068 | -80.95231 | 3895 ft | 179 kts | 182° |
| 2026-05-07 02:14 | 35.39821 | -80.95110 | 3921 ft | 177 kts | 182° |
| 2026-05-07 02:14 | 35.38585 | -80.95004 | 3796 ft | 180 kts | 182° |
| 2026-05-07 02:14 | 35.37352 | -80.94891 | 3654 ft | 176 kts | 182° |
| 2026-05-07 02:14 | 35.36106 | -80.94787 | 3426 ft | 182 kts | 182° |
| 2026-05-07 02:15 | 35.34830 | -80.94675 | 3179 ft | 182 kts | 181° |
| 2026-05-07 02:15 | 35.33571 | -80.94570 | 2921 ft | 181 kts | 182° |
| 2026-05-07 02:15 | 35.32336 | -80.94462 | 2662 ft | 178 kts | 180° |
| 2026-05-07 02:15 | 35.31095 | -80.94353 | 2417 ft | 174 kts | 181° |
| 2026-05-07 02:16 | 35.29951 | -80.94251 | 2166 ft | 156 kts | 180° |
| 2026-05-07 02:16 | 35.28882 | -80.94162 | 1968 ft | 152 kts | 181° |
| 2026-05-07 02:16 | 35.27840 | -80.94074 | 1789 ft | 150 kts | 181° |
| 2026-05-07 02:16 | 35.26796 | -80.93988 | 1596 ft | 153 kts | 180° |
| 2026-05-07 02:17 | 35.25708 | -80.93895 | 1392 ft | 158 kts | 179° |
| 2026-05-07 02:17 | 35.24585 | -80.93797 | 1186 ft | 161 kts | 178° |
| 2026-05-07 02:17 | 35.23518 | -80.93703 | 972 ft | 148 kts | 178° |
| 2026-05-07 02:17 | 35.22487 | -80.93617 | 785 ft | 151 kts | 178° |
| 2026-05-07 02:18 | 35.21478 | -80.93531 | 728 ft | 122 kts | 176° |
| 2026-05-07 02:18 | 35.20955 | -80.93501 | 718 ft | 62 kts | 192° |
| 2026-05-07 02:18 | 35.20652 | -80.93458 | 711 ft | 24 kts | 182° |
| 2026-05-07 02:18 | 35.20562 | -80.93496 | 712 ft | 8 kts | 201° |
| 2026-05-07 02:19 | 35.20483 | -80.93539 | 712 ft | 3 kts | 240° |
| 2026-05-07 02:19 | 35.20477 | -80.93574 | 712 ft | 8 kts | 275° |
| 2026-05-07 02:19 | 35.20543 | -80.93586 | 713 ft | 12 kts | 359° |
| 2026-05-07 02:19 | 35.20652 | -80.93591 | 714 ft | 18 kts | 355° |
| 2026-05-07 02:20 | 35.20802 | -80.93605 | 715 ft | 21 kts | 353° |
| 2026-05-07 02:20 | 35.20969 | -80.93622 | 718 ft | 25 kts | 356° |
| 2026-05-07 02:20 | 35.21071 | -80.93630 | 720 ft | 15 kts | 358° |
| 2026-05-07 02:20 | 35.21198 | -80.93639 | 722 ft | 20 kts | 354° |
| 2026-05-07 02:21 | 35.21361 | -80.93655 | 725 ft | 26 kts | 356° |
| 2026-05-07 02:21 | 35.21519 | -80.93668 | 728 ft | 21 kts | 356° |
| 2026-05-07 02:21 | 35.21604 | -80.93728 | 727 ft | 16 kts | 309° |
| 2026-05-07 02:21 | 35.21697 | -80.93863 | 725 ft | 24 kts | 312° |
| 2026-05-07 02:22 | 35.21799 | -80.93974 | 725 ft | 19 kts | 322° |
| 2026-05-07 02:22 | 35.21903 | -80.93909 | 727 ft | 20 kts | 47° |
| 2026-05-07 02:22 | 35.22001 | -80.93787 | 729 ft | 9 kts | 29° |
| 2026-05-07 02:22 | 35.22084 | -80.93783 | 731 ft | 14 kts | 355° |
| 2026-05-07 02:23 | 35.22200 | -80.93795 | 732 ft | 13 kts | 349° |
| 2026-05-07 02:23 | 35.22224 | -80.93838 | 731 ft | 9 kts | 260° |
| 2026-05-07 02:23 | 35.22219 | -80.93958 | 728 ft | 19 kts | 270° |
| 2026-05-07 02:23 | 35.22221 | -80.94029 | 726 ft | 0 kts | 284° |
| 2026-05-07 02:24 | 35.22232 | -80.94036 | 726 ft | 4 kts | 331° |
| 2026-05-07 02:24 | 35.22242 | -80.94044 | 726 ft | 0 kts | 329° |
| 2026-05-07 02:24 | 35.22247 | -80.94047 | 726 ft | 0 kts | 329° |